Time;durP1;ratioP1;P1;durP2;ratioP2;P2;SDS_P1;SDS_P2;PMS_P1;PMS_P2;Temp;Humidity;BMP_temperature;BMP_pressure;BME280_temperature;BME280_humidity;BME280_pressure;Samples;Min_cycle;Max_cycle;Signal;HPM_P1;HPM_P2
2024/03/17 00:02:01;;;;;;;;;;;;;;;;;;4966675;28;89547;-72
2024/03/17 00:04:27;;;;;;;;;;;;;;;;;;4966469;28;89883;-72
2024/03/17 00:06:52;;;;;;;;;;;;;;;;;;4966097;28;89145;-72
2024/03/17 00:09:17;;;;;;;;;;;;;;;;;;4966501;28;89766;-72
2024/03/17 00:11:43;;;;;;;;;;;;;;;;;;4966666;28;90691;-72
2024/03/17 00:14:09;;;;;;;;;;;;;;;;;;4966782;28;89924;-72
2024/03/17 00:16:34;;;;;;;;;;;;;;;;;;4965917;28;89678;-73
2024/03/17 00:18:59;;;;;;;;;;;;;;;;;;4966453;28;89645;-71
2024/03/17 00:21:26;;;;;;;;;;;;;;;;;;4968588;28;89149;-72
2024/03/17 00:23:51;;;;;;;;;;;;;;;;;;4966813;28;90097;-73
2024/03/17 00:26:16;;;;;;;;;;;;;;;;;;4965177;28;90399;-72
2024/03/17 00:28:41;;;;;;;;;;;;;;;;;;4966474;28;90851;-75
2024/03/17 00:31:09;;;;;;;;;;;;;;;;;;4966390;28;89255;-71
2024/03/17 00:33:35;;;;;;;;;;;;;;;;;;4966319;28;88971;-71
2024/03/17 00:36:00;;;;;;;;;;;;;;;;;;4966061;28;89050;-74
2024/03/17 00:38:25;;;;;;;;;;;;;;;;;;4965959;28;89515;-74
2024/03/17 00:40:50;;;;;;;;;;;;;;;;;;4966153;28;89009;-72
2024/03/17 00:43:15;;;;;;;;;;;;;;;;;;4969195;28;89080;-72
2024/03/17 00:45:41;;;;;;;;;;;;;;;;;;4966020;28;89086;-72
2024/03/17 00:48:07;;;;;;;;;;;;;;;;;;4964948;28;91087;-77
2024/03/17 00:50:32;;;;;;;;;;;;;;;;;;4965892;28;89304;-71
2024/03/17 00:52:57;;;;;;;;;;;;;;;;;;4965262;28;89207;-72
2024/03/17 00:55:22;;;;;;;;;;;;;;;;;;4966562;28;89796;-71
2024/03/17 00:57:48;;;;;;;;;;;;;;;;;;4966337;28;89619;-74
2024/03/17 01:00:14;;;;;;;;;;;;;;;;;;4969850;28;89603;-71
2024/03/17 01:02:40;;;;;;;;;;;;;;;;;;4969331;28;89779;-72
2024/03/17 01:05:05;;;;;;;;;;;;;;;;;;4972123;28;89771;-72
2024/03/17 01:07:30;;;;;;;;;;;;;;;;;;4969117;28;91041;-72
2024/03/17 01:09:56;;;;;;;;;;;;;;;;;;4968418;28;89456;-73
2024/03/17 01:12:21;;;;;;;;;;;;;;;;;;4969443;28;90008;-73
2024/03/17 01:14:47;;;;;;;;;;;;;;;;;;4969422;28;90162;-72
2024/03/17 01:17:12;;;;;;;;;;;;;;;;;;4969123;28;89542;-71
2024/03/17 01:19:37;;;;;;;;;;;;;;;;;;4969044;28;89696;-71
2024/03/17 01:22:02;;;;;;;;;;;;;;;;;;4969057;28;89743;-73
2024/03/17 01:24:31;;;;;;;;;;;;;;;;;;4969076;28;89517;-71
2024/03/17 01:26:57;;;;;;;;;;;;;;;;;;4972069;28;89334;-71
2024/03/17 01:29:22;;;;;;;;;;;;;;;;;;4967596;28;91721;-72
2024/03/17 01:31:47;;;;;;;;;;;;;;;;;;4968501;28;90000;-71
2024/03/17 01:34:13;;;;;;;;;;;;;;;;;;4968266;28;90098;-71
2024/03/17 01:36:38;;;;;;;;;;;;;;;;;;4967175;28;90894;-70
2024/03/17 01:39:03;;;;;;;;;;;;;;;;;;4968146;28;89686;-71
2024/03/17 01:41:28;;;;;;;;;;;;;;;;;;4970614;28;91269;-72
2024/03/17 01:43:53;;;;;;;;;;;;;;;;;;4986751;28;89689;-71
2024/03/17 01:46:19;;;;;;;;;;;;;;;;;;4988151;28;89354;-72
2024/03/17 01:48:45;;;;;;;;;;;;;;;;;;4977108;28;92950;-71
2024/03/17 01:51:10;;;;;;;;;;;;;;;;;;4969096;28;89515;-74
2024/03/17 01:53:37;;;;;;;;;;;;;;;;;;4968079;28;89901;-72
2024/03/17 01:56:03;;;;;;;;;;;;;;;;;;4968345;28;89435;-75
2024/03/17 01:58:30;;;;;;;;;;;;;;;;;;4967558;28;89084;-75
2024/03/17 02:00:56;;;;;;;;;;;;;;;;;;4968562;28;89764;-78
2024/03/17 02:03:21;;;;;;;;;;;;;;;;;;4968485;28;89335;-72
2024/03/17 02:05:47;;;;;;;;;;;;;;;;;;4966662;28;89647;-73
2024/03/17 02:08:12;;;;;;;;;;;;;;;;;;4971217;28;90697;-72
2024/03/17 02:10:38;;;;;;;;;;;;;;;;;;4968484;28;89655;-72
2024/03/17 02:13:03;;;;;;;;;;;;;;;;;;4961815;28;90055;-71
2024/03/17 02:15:29;;;;;;;;;;;;;;;;;;4949293;28;89326;-72
2024/03/17 02:17:55;;;;;;;;;;;;;;;;;;4948898;28;89031;-73
2024/03/17 02:20:24;;;;;;;;;;;;;;;;;;4949185;28;89825;-71
2024/03/17 02:22:49;;;;;;;;;;;;;;;;;;4948222;28;89502;-73
2024/03/17 02:25:15;;;;;;;;;;;;;;;;;;4949192;28;89514;-72
2024/03/17 02:27:40;;;;;;;;;;;;;;;;;;4963865;28;91246;-72
2024/03/17 02:30:09;;;;;;;;;;;;;;;;;;4951705;28;89607;-72
2024/03/17 02:32:34;;;;;;;;;;;;;;;;;;4948771;28;90326;-72
2024/03/17 02:34:59;;;;;;;;;;;;;;;;;;4963545;28;91730;-71
2024/03/17 02:37:25;;;;;;;;;;;;;;;;;;4948128;28;89532;-72
2024/03/17 02:39:50;;;;;;;;;;;;;;;;;;4949026;28;89792;-72
2024/03/17 02:42:15;;;;;;;;;;;;;;;;;;4948776;28;89424;-71
2024/03/17 02:44:40;;;;;;;;;;;;;;;;;;4948597;28;89073;-72
2024/03/17 02:47:08;;;;;;;;;;;;;;;;;;4946957;28;91278;-72
2024/03/17 02:49:37;;;;;;;;;;;;;;;;;;4948314;28;90796;-72
2024/03/17 02:52:06;;;;;;;;;;;;;;;;;;4951172;28;89181;-73
2024/03/17 02:54:31;;;;;;;;;;;;;;;;;;4966302;28;92303;-71
2024/03/17 02:56:57;;;;;;;;;;;;;;;;;;4968027;28;89040;-73
2024/03/17 02:59:22;;;;;;;;;;;;;;;;;;4967904;28;89745;-71
2024/03/17 03:01:47;;;;;;;;;;;;;;;;;;4968302;28;89519;-73
2024/03/17 03:04:13;;;;;;;;;;;;;;;;;;4968062;28;89054;-72
2024/03/17 03:06:38;;;;;;;;;;;;;;;;;;4966593;28;92327;-73
2024/03/17 03:09:05;;;;;;;;;;;;;;;;;;4967614;28;89797;-72
2024/03/17 03:11:30;;;;;;;;;;;;;;;;;;4967185;28;89729;-73
2024/03/17 03:13:56;;;;;;;;;;;;;;;;;;4970797;28;90198;-72
2024/03/17 03:16:21;;;;;;;;;;;;;;;;;;4967658;28;89537;-73
2024/03/17 03:18:46;;;;;;;;;;;;;;;;;;4967100;28;89579;-73
2024/03/17 03:21:14;;;;;;;;;;;;;;;;;;4966768;28;89674;-75
2024/03/17 03:23:39;;;;;;;;;;;;;;;;;;4966585;28;90054;-72
2024/03/17 03:26:04;;;;;;;;;;;;;;;;;;4966140;28;92773;-72
2024/03/17 03:28:31;;;;;;;;;;;;;;;;;;4967277;28;90088;-72
2024/03/17 03:30:56;;;;;;;;;;;;;;;;;;4967032;28;89449;-72
2024/03/17 03:33:22;;;;;;;;;;;;;;;;;;4966741;28;89847;-71
2024/03/17 03:35:47;;;;;;;;;;;;;;;;;;4969553;28;89567;-71
2024/03/17 03:38:15;;;;;;;;;;;;;;;;;;4966542;28;90631;-71
2024/03/17 03:40:41;;;;;;;;;;;;;;;;;;4967099;28;89676;-73
2024/03/17 03:43:07;;;;;;;;;;;;;;;;;;4966787;28;89486;-74
2024/03/17 03:45:33;;;;;;;;;;;;;;;;;;4966647;28;89532;-71
2024/03/17 03:47:58;;;;;;;;;;;;;;;;;;4965391;28;91106;-72
2024/03/17 03:50:23;;;;;;;;;;;;;;;;;;4965994;28;89613;-71
2024/03/17 03:52:49;;;;;;;;;;;;;;;;;;4971904;28;89904;-71
2024/03/17 03:55:15;;;;;;;;;;;;;;;;;;4965564;28;89411;-72
2024/03/17 03:57:41;;;;;;;;;;;;;;;;;;4969768;28;89568;-73
2024/03/17 04:00:13;;;;;;;;;;;;;;;;;;4966432;28;90314;-74
2024/03/17 04:02:38;;;;;;;;;;;;;;;;;;4966542;28;89512;-71
2024/03/17 04:05:04;;;;;;;;;;;;;;;;;;4966556;28;89544;-72
2024/03/17 04:07:29;;;;;;;;;;;;;;;;;;4966184;28;89343;-71
2024/03/17 04:09:54;;;;;;;;;;;;;;;;;;4965840;28;89067;-73
2024/03/17 04:12:20;;;;;;;;;;;;;;;;;;4965914;28;89729;-73
2024/03/17 04:14:46;;;;;;;;;;;;;;;;;;4973200;28;89768;-72
2024/03/17 04:17:11;;;;;;;;;;;;;;;;;;4977962;28;89064;-72
2024/03/17 04:19:37;;;;;;;;;;;;;;;;;;4972926;28;89765;-71
2024/03/17 04:22:02;;;;;;;;;;;;;;;;;;4973342;28;89546;-72
2024/03/17 04:24:27;;;;;;;;;;;;;;;;;;4983619;28;89134;-74
2024/03/17 04:26:53;;;;;;;;;;;;;;;;;;4973076;28;89833;-72
2024/03/17 04:29:20;;;;;;;;;;;;;;;;;;4976861;28;89486;-71
2024/03/17 04:31:48;;;;;;;;;;;;;;;;;;4967361;28;93494;-72
2024/03/17 04:34:14;;;;;;;;;;;;;;;;;;4982925;28;90580;-73
2024/03/17 04:36:39;;;;;;;;;;;;;;;;;;4978743;28;89862;-71
2024/03/17 04:39:08;;;;;;;;;;;;;;;;;;4978117;28;91202;-73
2024/03/17 04:41:33;;;;;;;;;;;;;;;;;;4977448;28;89961;-71
2024/03/17 04:43:58;;;;;;;;;;;;;;;;;;4977198;28;92537;-72
2024/03/17 04:46:24;;;;;;;;;;;;;;;;;;4976246;28;89824;-71
2024/03/17 04:48:49;;;;;;;;;;;;;;;;;;4974557;28;89608;-73
2024/03/17 04:51:15;;;;;;;;;;;;;;;;;;4982741;28;89705;-71
2024/03/17 04:53:41;;;;;;;;;;;;;;;;;;4974419;28;91786;-71
2024/03/17 04:56:06;;;;;;;;;;;;;;;;;;4974070;28;90363;-72
2024/03/17 04:58:32;;;;;;;;;;;;;;;;;;4977927;28;90544;-71
2024/03/17 05:01:02;;;;;;;;;;;;;;;;;;4979574;28;89523;-71
2024/03/17 05:03:27;;;;;;;;;;;;;;;;;;4978896;28;91153;-73
2024/03/17 05:06:02;;;;;;;;;;;;;;;;;;4974128;28;89139;-73
2024/03/17 05:08:27;;;;;;;;;;;;;;;;;;4976314;28;90276;-72
2024/03/17 05:10:59;;;;;;;;;;;;;;;;;;4966902;28;90854;-72
2024/03/17 05:13:26;;;;;;;;;;;;;;;;;;4965829;28;90074;-73
2024/03/17 05:15:51;;;;;;;;;;;;;;;;;;4969151;28;89297;-74
2024/03/17 05:18:16;;;;;;;;;;;;;;;;;;4968648;28;91912;-72
2024/03/17 05:20:41;;;;;;;;;;;;;;;;;;4963762;28;89685;-72
2024/03/17 05:23:07;;;;;;;;;;;;;;;;;;4965217;28;89626;-71
2024/03/17 05:25:36;;;;;;;;;;;;;;;;;;4968762;28;90180;-71
2024/03/17 05:28:01;;;;;;;;;;;;;;;;;;4966682;28;89085;-71
2024/03/17 05:30:27;;;;;;;;;;;;;;;;;;4968609;28;90422;-71
2024/03/17 05:32:52;;;;;;;;;;;;;;;;;;4966113;28;92809;-72
2024/03/17 05:35:17;;;;;;;;;;;;;;;;;;4969594;28;90241;-72
2024/03/17 05:37:42;;;;;;;;;;;;;;;;;;4968911;28;91787;-72
2024/03/17 05:40:12;;;;;;;;;;;;;;;;;;4962212;28;89976;-72
2024/03/17 05:42:37;;;;;;;;;;;;;;;;;;4962994;28;89904;-73
2024/03/17 05:45:02;;;;;;;;;;;;;;;;;;4966116;28;90856;-72
2024/03/17 05:47:27;;;;;;;;;;;;;;;;;;4968254;28;89792;-71
2024/03/17 05:49:52;;;;;;;;;;;;;;;;;;4965878;28;93591;-72
2024/03/17 05:52:18;;;;;;;;;;;;;;;;;;4966346;28;89577;-72
2024/03/17 05:54:43;;;;;;;;;;;;;;;;;;4968807;28;89543;-73
2024/03/17 05:57:11;;;;;;;;;;;;;;;;;;4966782;28;89853;-72
2024/03/17 05:59:37;;;;;;;;;;;;;;;;;;4963287;28;89441;-72
2024/03/17 06:02:02;;;;;;;;;;;;;;;;;;4965989;28;89825;-72
2024/03/17 06:04:27;;;;;;;;;;;;;;;;;;4964192;28;90112;-72
2024/03/17 06:06:53;;;;;;;;;;;;;;;;;;4965759;28;89924;-73
2024/03/17 06:09:19;;;;;;;;;;;;;;;;;;4968296;28;92501;-73
2024/03/17 06:11:45;;;;;;;;;;;;;;;;;;4966244;28;89242;-72
2024/03/17 06:14:11;;;;;;;;;;;;;;;;;;4973535;28;91400;-72
2024/03/17 06:16:37;;;;;;;;;;;;;;;;;;4972275;28;89672;-72
2024/03/17 06:19:02;;;;;;;;;;;;;;;;;;4974204;28;89955;-72
2024/03/17 06:21:28;;;;;;;;;;;;;;;;;;4968310;28;89627;-74
2024/03/17 06:23:53;;;;;;;;;;;;;;;;;;4973892;28;90035;-71
2024/03/17 06:26:20;;;;;;;;;;;;;;;;;;4970923;28;92117;-73
2024/03/17 06:28:45;;;;;;;;;;;;;;;;;;4969800;28;89717;-73
2024/03/17 06:31:10;;;;;;;;;;;;;;;;;;4967174;28;89775;-72
2024/03/17 06:33:36;;;;;;;;;;;;;;;;;;4969072;28;91666;-73
2024/03/17 06:36:04;;;;;;;;;;;;;;;;;;4966891;28;92601;-72
2024/03/17 06:38:29;;;;;;;;;;;;;;;;;;4961254;28;89393;-73
2024/03/17 06:40:54;;;;;;;;;;;;;;;;;;4963216;28;89241;-74
2024/03/17 06:43:19;;;;;;;;;;;;;;;;;;4967276;28;90808;-72
2024/03/17 06:45:53;;;;;;;;;;;;;;;;;;4963272;28;92203;-72
2024/03/17 06:48:18;;;;;;;;;;;;;;;;;;4972088;28;89181;-72
2024/03/17 06:50:44;;;;;;;;;;;;;;;;;;4963918;28;90783;-71
2024/03/17 06:53:09;;;;;;;;;;;;;;;;;;4963259;28;89642;-72
2024/03/17 06:55:34;;;;;;;;;;;;;;;;;;4965731;28;89714;-73
2024/03/17 06:58:00;;;;;;;;;;;;;;;;;;4967521;28;89282;-73
2024/03/17 07:00:25;;;;;;;;;;;;;;;;;;4966544;28;89924;-73
2024/03/17 07:02:50;;;;;;;;;;;;;;;;;;4967563;28;89782;-73
2024/03/17 07:05:15;;;;;;;;;;;;;;;;;;4964116;28;90884;-73
2024/03/17 07:07:41;;;;;;;;;;;;;;;;;;4963703;28;89880;-70
2024/03/17 07:10:08;;;;;;;;;;;;;;;;;;4965141;28;91568;-72
2024/03/17 07:12:33;;;;;;;;;;;;;;;;;;4961140;28;89628;-72
2024/03/17 07:14:58;;;;;;;;;;;;;;;;;;4970246;28;90265;-74
2024/03/17 07:17:24;;;;;;;;;;;;;;;;;;4977356;28;89627;-75
2024/03/17 07:19:49;;;;;;;;;;;;;;;;;;4973793;28;89041;-72
2024/03/17 07:22:14;;;;;;;;;;;;;;;;;;4979100;28;88996;-72
2024/03/17 07:24:39;;;;;;;;;;;;;;;;;;4978966;28;91197;-72
2024/03/17 07:27:08;;;;;;;;;;;;;;;;;;4976493;28;90014;-73
2024/03/17 07:29:33;;;;;;;;;;;;;;;;;;4974904;28;91670;-71
2024/03/17 07:31:59;;;;;;;;;;;;;;;;;;4984868;28;89952;-72
2024/03/17 07:34:24;;;;;;;;;;;;;;;;;;4981011;28;89474;-71
2024/03/17 07:36:49;;;;;;;;;;;;;;;;;;4976236;28;89513;-70
2024/03/17 07:39:14;;;;;;;;;;;;;;;;;;4964983;28;90302;-71
2024/03/17 07:41:40;;;;;;;;;;;;;;;;;;4966435;28;89719;-70
2024/03/17 07:44:05;;;;;;;;;;;;;;;;;;4970107;28;89189;-70
2024/03/17 07:46:30;;;;;;;;;;;;;;;;;;4971715;28;90274;-70
2024/03/17 07:48:56;;;;;;;;;;;;;;;;;;4970567;28;89270;-70
2024/03/17 07:51:21;;;;;;;;;;;;;;;;;;4974823;28;89434;-72
2024/03/17 07:53:51;;;;;;;;;;;;;;;;;;4983897;28;89670;-71
2024/03/17 07:56:17;;;;;;;;;;;;;;;;;;4970298;28;91860;-71
2024/03/17 07:58:43;;;;;;;;;;;;;;;;;;4974106;28;90072;-71
2024/03/17 08:01:12;;;;;;;;;;;;;;;;;;4976031;28;89964;-70
2024/03/17 08:03:39;;;;;;;;;;;;;;;;;;4975342;28;89671;-70
2024/03/17 08:06:05;;;;;;;;;;;;;;;;;;4974830;28;89499;-71
2024/03/17 08:08:31;;;;;;;;;;;;;;;;;;4980622;28;90444;-71
2024/03/17 08:10:56;;;;;;;;;;;;;;;;;;4977854;28;90600;-71
2024/03/17 08:13:22;;;;;;;;;;;;;;;;;;4976552;28;89411;-73
2024/03/17 08:15:55;;;;;;;;;;;;;;;;;;4978136;28;89744;-70
2024/03/17 08:18:20;;;;;;;;;;;;;;;;;;4983064;28;89093;-76
2024/03/17 08:20:46;;;;;;;;;;;;;;;;;;4974445;28;89721;-75
2024/03/17 08:23:12;;;;;;;;;;;;;;;;;;4975515;28;90553;-77
2024/03/17 08:25:37;;;;;;;;;;;;;;;;;;4982522;28;89273;-77
2024/03/17 08:28:02;;;;;;;;;;;;;;;;;;4975641;28;90132;-74
2024/03/17 08:30:28;;;;;;;;;;;;;;;;;;4977485;28;89581;-76
2024/03/17 08:32:54;;;;;;;;;;;;;;;;;;4979530;28;89935;-76
2024/03/17 08:35:19;;;;;;;;;;;;;;;;;;4983291;28;92230;-77
2024/03/17 08:37:44;;;;;;;;;;;;;;;;;;4984249;28;89599;-77
2024/03/17 08:40:10;;;;;;;;;;;;;;;;;;4987574;28;91400;-76
2024/03/17 08:42:36;;;;;;;;;;;;;;;;;;4989780;28;89422;-80
2024/03/17 08:45:01;;;;;;;;;;;;;;;;;;4990167;28;89753;-79
2024/03/17 08:47:26;;;;;;;;;;;;;;;;;;4986260;28;92026;-75
2024/03/17 08:49:51;;;;;;;;;;;;;;;;;;4973173;28;89390;-73
2024/03/17 08:52:17;;;;;;;;;;;;;;;;;;4973600;28;90918;-74
2024/03/17 08:54:45;;;;;;;;;;;;;;;;;;4975498;28;89754;-73
2024/03/17 08:57:10;;;;;;;;;;;;;;;;;;4973564;28;89985;-70
2024/03/17 08:59:36;;;;;;;;;;;;;;;;;;4973893;28;90055;-72
2024/03/17 09:02:01;;;;;;;;;;;;;;;;;;4973104;28;89732;-75
2024/03/17 09:04:26;;;;;;;;;;;;;;;;;;4971286;28;90077;-75
2024/03/17 09:06:54;;;;;;;;;;;;;;;;;;4979639;28;90250;-76
2024/03/17 09:09:19;;;;;;;;;;;;;;;;;;4973452;28;89528;-76
2024/03/17 09:11:45;;;;;;;;;;;;;;;;;;4968025;28;89771;-76
2024/03/17 09:14:11;;;;;;;;;;;;;;;;;;4974375;28;90652;-76
2024/03/17 09:16:37;;;;;;;;;;;;;;;;;;4970894;28;90010;-76
2024/03/17 09:19:02;;;;;;;;;;;;;;;;;;4972924;28;89514;-79
2024/03/17 09:21:27;;;;;;;;;;;;;;;;;;4980706;28;89419;-76
2024/03/17 09:23:52;;;;;;;;;;;;;;;;;;4973472;28;89279;-76
2024/03/17 09:26:18;;;;;;;;;;;;;;;;;;4977749;28;89936;-76
2024/03/17 09:28:46;;;;;;;;;;;;;;;;;;4975840;28;90890;-75
2024/03/17 09:31:11;;;;;;;;;;;;;;;;;;4977436;28;89938;-75
2024/03/17 09:33:38;;;;;;;;;;;;;;;;;;4975796;28;90092;-75
2024/03/17 09:36:05;;;;;;;;;;;;;;;;;;4973325;28;91573;-75
2024/03/17 09:38:31;;;;;;;;;;;;;;;;;;4974943;28;89647;-74
2024/03/17 09:40:57;;;;;;;;;;;;;;;;;;4973276;28;90519;-75
2024/03/17 09:43:24;;;;;;;;;;;;;;;;;;4970029;28;90367;-74
2024/03/17 09:45:54;;;;;;;;;;;;;;;;;;4970415;28;89223;-75
2024/03/17 09:48:19;;;;;;;;;;;;;;;;;;4969072;28;91219;-74
2024/03/17 09:50:48;;;;;;;;;;;;;;;;;;4977127;28;89177;-74
2024/03/17 09:53:15;;;;;;;;;;;;;;;;;;4965152;28;92411;-75
2024/03/17 09:55:41;;;;;;;;;;;;;;;;;;4973790;28;89782;-73
2024/03/17 09:58:14;;;;;;;;;;;;;;;;;;4968017;28;90299;-75
2024/03/17 10:00:39;;;;;;;;;;;;;;;;;;4973843;28;90347;-77
2024/03/17 10:03:05;;;;;;;;;;;;;;;;;;4979904;28;89677;-76
2024/03/17 10:05:30;;;;;;;;;;;;;;;;;;4976413;28;90720;-75
2024/03/17 10:07:55;;;;;;;;;;;;;;;;;;4974072;28;89744;-75
2024/03/17 10:10:21;;;;;;;;;;;;;;;;;;4973058;28;89838;-76
2024/03/17 10:12:52;;;;;;;;;;;;;;;;;;4974306;28;89876;-75
2024/03/17 10:15:18;;;;;;;;;;;;;;;;;;4979993;28;89832;-75
2024/03/17 10:17:43;;;;;;;;;;;;;;;;;;4977309;28;89614;-76
2024/03/17 10:20:23;;;;;;;;;;;;;;;;;;4981560;28;90080;-76
2024/03/17 10:23:04;;;;;;;;;;;;;;;;;;4974925;28;89544;-76
2024/03/17 10:25:31;;;;;;;;;;;;;;;;;;4982229;28;89546;-76
2024/03/17 10:27:57;;;;;;;;;;;;;;;;;;4977600;28;89585;-76
2024/03/17 10:30:24;;;;;;;;;;;;;;;;;;4977407;28;90118;-75
2024/03/17 10:32:54;;;;;;;;;;;;;;;;;;4977514;28;90117;-75
2024/03/17 10:35:30;;;;;;;;;;;;;;;;;;4974796;28;89672;-75
2024/03/17 10:37:59;;;;;;;;;;;;;;;;;;4978188;28;89343;-76
2024/03/17 10:40:25;;;;;;;;;;;;;;;;;;4979682;28;90869;-76
2024/03/17 10:42:51;;;;;;;;;;;;;;;;;;4978401;28;91807;-76
2024/03/17 10:45:16;;;;;;;;;;;;;;;;;;4984910;28;89836;-76
2024/03/17 10:47:45;;;;;;;;;;;;;;;;;;4979003;28;89793;-76
2024/03/17 10:50:15;;;;;;;;;;;;;;;;;;4973785;28;89244;-76
2024/03/17 10:52:45;;;;;;;;;;;;;;;;;;4975322;28;89893;-75
2024/03/17 10:55:19;;;;;;;;;;;;;;;;;;4968420;28;90919;-76
2024/03/17 10:57:44;;;;;;;;;;;;;;;;;;4977250;28;89157;-76
2024/03/17 11:00:12;;;;;;;;;;;;;;;;;;4977376;28;89661;-76
2024/03/17 11:02:40;;;;;;;;;;;;;;;;;;4977087;28;91669;-76
2024/03/17 11:05:11;;;;;;;;;;;;;;;;;;4971609;28;89588;-76
2024/03/17 11:07:38;;;;;;;;;;;;;;;;;;4982058;28;89605;-76
2024/03/17 11:10:05;;;;;;;;;;;;;;;;;;4978578;28;89574;-76
2024/03/17 11:12:49;;;;;;;;;;;;;;;;;;4981990;28;89766;-76
2024/03/17 11:15:26;;;;;;;;;;;;;;;;;;4976739;28;89444;-75
2024/03/17 11:18:16;;;;;;;;;;;;;;;;;;4976852;28;89255;-76
2024/03/17 11:20:42;;;;;;;;;;;;;;;;;;4976067;28;89720;-76
2024/03/17 11:23:07;;;;;;;;;;;;;;;;;;4976421;28;89131;-76
2024/03/17 11:25:35;;;;;;;;;;;;;;;;;;4974079;28;89128;-76
2024/03/17 11:28:02;;;;;;;;;;;;;;;;;;4973707;28;89619;-76
2024/03/17 11:30:54;;;;;;;;;;;;;;;;;;4979976;28;89543;-76
2024/03/17 11:33:32;;;;;;;;;;;;;;;;;;4978311;28;90068;-76
2024/03/17 11:36:16;;;;;;;;;;;;;;;;;;4971918;28;91164;-76
2024/03/17 11:39:00;;;;;;;;;;;;;;;;;;4975744;28;89258;-77
2024/03/17 11:41:34;;;;;;;;;;;;;;;;;;4977778;28;90050;-76
2024/03/17 11:44:15;;;;;;;;;;;;;;;;;;4957205;28;91776;-77
2024/03/17 11:46:42;;;;;;;;;;;;;;;;;;4978602;28;89398;-76
2024/03/17 11:49:16;;;;;;;;;;;;;;;;;;4973254;28;92359;-76
2024/03/17 11:51:41;;;;;;;;;;;;;;;;;;4980486;28;89507;-77
2024/03/17 11:54:13;;;;;;;;;;;;;;;;;;4977390;28;89452;-77
2024/03/17 11:56:38;;;;;;;;;;;;;;;;;;4975104;28;89465;-76
2024/03/17 11:59:04;;;;;;;;;;;;;;;;;;4971779;28;91194;-76
2024/03/17 12:01:29;;;;;;;;;;;;;;;;;;4972446;28;90940;-76
2024/03/17 12:03:57;;;;;;;;;;;;;;;;;;4971678;28;89387;-76
2024/03/17 12:06:22;;;;;;;;;;;;;;;;;;4974770;28;90910;-76
2024/03/17 12:08:48;;;;;;;;;;;;;;;;;;4972441;28;92520;-75
2024/03/17 12:11:19;;;;;;;;;;;;;;;;;;4975178;28;90542;-76
2024/03/17 12:13:44;;;;;;;;;;;;;;;;;;4974058;28;90677;-76
2024/03/17 12:16:13;;;;;;;;;;;;;;;;;;4978711;28;89753;-76
2024/03/17 12:18:41;;;;;;;;;;;;;;;;;;4975753;28;89400;-76
2024/03/17 12:21:12;;;;;;;;;;;;;;;;;;4976586;28;89881;-75
2024/03/17 12:23:37;;;;;;;;;;;;;;;;;;4976956;28;89894;-75
2024/03/17 12:26:02;;;;;;;;;;;;;;;;;;4976236;28;89237;-76
2024/03/17 12:28:28;;;;;;;;;;;;;;;;;;4977698;28;91358;-76
2024/03/17 12:30:55;;;;;;;;;;;;;;;;;;4973841;28;89838;-76
2024/03/17 12:33:20;;;;;;;;;;;;;;;;;;4974076;28;89521;-76
2024/03/17 12:35:46;;;;;;;;;;;;;;;;;;4978487;28;89714;-76
2024/03/17 12:38:21;;;;;;;;;;;;;;;;;;4975683;28;89106;-77
2024/03/17 12:40:46;;;;;;;;;;;;;;;;;;4975919;28;89996;-76
2024/03/17 12:43:12;;;;;;;;;;;;;;;;;;4981380;28;89345;-76
2024/03/17 12:45:37;;;;;;;;;;;;;;;;;;4973745;28;89423;-76
2024/03/17 12:48:02;;;;;;;;;;;;;;;;;;4974146;28;89696;-76
2024/03/17 12:50:28;;;;;;;;;;;;;;;;;;4970031;28;90914;-77
2024/03/17 12:52:55;;;;;;;;;;;;;;;;;;4974265;28;90751;-76
2024/03/17 13:00:58;;;;;;;;;;;;;;;;;;4978724;28;89760;-76
2024/03/17 13:03:25;;;;;;;;;;;;;;;;;;4977282;28;90928;-77
2024/03/17 13:05:51;;;;;;;;;;;;;;;;;;4978963;28;89213;-76
2024/03/17 13:08:16;;;;;;;;;;;;;;;;;;4977890;28;89721;-76
2024/03/17 13:10:44;;;;;;;;;;;;;;;;;;4980628;28;89325;-77
2024/03/17 13:13:12;;;;;;;;;;;;;;;;;;4977158;28;90267;-77
2024/03/17 13:15:37;;;;;;;;;;;;;;;;;;4980394;28;90776;-77
2024/03/17 13:18:06;;;;;;;;;;;;;;;;;;4979020;28;89770;-78
2024/03/17 13:20:32;;;;;;;;;;;;;;;;;;4961632;28;89373;-77
2024/03/17 13:22:57;;;;;;;;;;;;;;;;;;4974758;28;92330;-77
2024/03/17 13:25:26;;;;;;;;;;;;;;;;;;4977418;28;89733;-76
2024/03/17 13:27:52;;;;;;;;;;;;;;;;;;4977910;28;91105;-75
2024/03/17 13:30:18;;;;;;;;;;;;;;;;;;4976515;28;89710;-77
2024/03/17 13:32:47;;;;;;;;;;;;;;;;;;4987077;28;90501;-76
2024/03/17 13:35:19;;;;;;;;;;;;;;;;;;4975488;28;89777;-76
2024/03/17 13:37:45;;;;;;;;;;;;;;;;;;4978342;28;89333;-76
2024/03/17 13:40:12;;;;;;;;;;;;;;;;;;4972632;28;90338;-76
2024/03/17 13:42:37;;;;;;;;;;;;;;;;;;4983184;28;92937;-76
2024/03/17 13:45:03;;;;;;;;;;;;;;;;;;4976172;28;90408;-77
2024/03/17 13:47:28;;;;;;;;;;;;;;;;;;4973347;28;90845;-77
2024/03/17 13:49:53;;;;;;;;;;;;;;;;;;4975468;28;90509;-76
2024/03/17 13:52:19;;;;;;;;;;;;;;;;;;4975689;28;91506;-77
2024/03/17 13:54:44;;;;;;;;;;;;;;;;;;4976810;28;89748;-76
2024/03/17 13:57:09;;;;;;;;;;;;;;;;;;4975555;28;92106;-76
2024/03/17 13:59:35;;;;;;;;;;;;;;;;;;4981096;28;90230;-77
2024/03/17 14:02:02;;;;;;;;;;;;;;;;;;4969460;28;89740;-71
2024/03/17 14:04:27;;;;;;;;;;;;;;;;;;4975812;28;89798;-71
2024/03/17 14:06:53;;;;;;;;;;;;;;;;;;4972914;28;89744;-78
2024/03/17 14:09:18;;;;;;;;;;;;;;;;;;4967589;28;91892;-73
2024/03/17 14:11:44;;;;;;;;;;;;;;;;;;4969591;28;90165;-76
2024/03/17 14:14:10;;;;;;;;;;;;;;;;;;4969948;28;90189;-76
2024/03/17 14:16:35;;;;;;;;;;;;;;;;;;4966585;28;90657;-76
2024/03/17 14:19:01;;;;;;;;;;;;;;;;;;4973694;28;89333;-76
2024/03/17 14:21:26;;;;;;;;;;;;;;;;;;4976180;28;90317;-76
2024/03/17 14:23:52;;;;;;;;;;;;;;;;;;4976042;28;89404;-76
2024/03/17 14:26:17;;;;;;;;;;;;;;;;;;4977646;28;89471;-76
2024/03/17 14:28:44;;;;;;;;;;;;;;;;;;4975826;28;89577;-75
2024/03/17 14:31:09;;;;;;;;;;;;;;;;;;4977708;28;90515;-76
2024/03/17 14:33:34;;;;;;;;;;;;;;;;;;4971286;28;91103;-75
2024/03/17 14:35:59;;;;;;;;;;;;;;;;;;4975499;28;89478;-76
2024/03/17 14:38:24;;;;;;;;;;;;;;;;;;4974607;28;89306;-77
2024/03/17 14:40:53;;;;;;;;;;;;;;;;;;4969876;28;91381;-75
2024/03/17 14:43:19;;;;;;;;;;;;;;;;;;4972572;28;89574;-76
2024/03/17 14:45:45;;;;;;;;;;;;;;;;;;4975738;28;89845;-77
2024/03/17 14:48:11;;;;;;;;;;;;;;;;;;4972826;28;89545;-77
2024/03/17 14:50:36;;;;;;;;;;;;;;;;;;4975466;28;90410;-77
2024/03/17 14:53:01;;;;;;;;;;;;;;;;;;4976426;28;89764;-77
2024/03/17 14:55:28;;;;;;;;;;;;;;;;;;4975681;28;91403;-76
2024/03/17 14:57:53;;;;;;;;;;;;;;;;;;4974909;28;89595;-75
2024/03/17 15:00:19;;;;;;;;;;;;;;;;;;4976400;28;89774;-76
2024/03/17 15:02:46;;;;;;;;;;;;;;;;;;4971313;28;89677;-75
2024/03/17 15:05:12;;;;;;;;;;;;;;;;;;4974413;28;89697;-76
2024/03/17 15:07:37;;;;;;;;;;;;;;;;;;4966806;28;92592;-76
2024/03/17 15:10:03;;;;;;;;;;;;;;;;;;4967852;28;89008;-75
2024/03/17 15:12:28;;;;;;;;;;;;;;;;;;4983025;28;91231;-76
2024/03/17 15:14:55;;;;;;;;;;;;;;;;;;4975282;28;89964;-76
2024/03/17 15:17:20;;;;;;;;;;;;;;;;;;4976509;28;89807;-75
2024/03/17 15:19:48;;;;;;;;;;;;;;;;;;4970052;28;92481;-76
2024/03/17 15:22:13;;;;;;;;;;;;;;;;;;4971753;28;89653;-76
2024/03/17 15:24:39;;;;;;;;;;;;;;;;;;4974136;28;90247;-75
2024/03/17 15:27:04;;;;;;;;;;;;;;;;;;4975608;28;90373;-76
2024/03/17 15:29:29;;;;;;;;;;;;;;;;;;4982139;28;90090;-76
2024/03/17 15:31:56;;;;;;;;;;;;;;;;;;4976275;28;89417;-76
2024/03/17 15:34:22;;;;;;;;;;;;;;;;;;4973770;28;89574;-75
2024/03/17 15:36:49;;;;;;;;;;;;;;;;;;4977223;28;89314;-75
2024/03/17 15:39:14;;;;;;;;;;;;;;;;;;4977713;28;89765;-78
2024/03/17 15:41:39;;;;;;;;;;;;;;;;;;4981195;28;90046;-76
2024/03/17 15:44:04;;;;;;;;;;;;;;;;;;4975866;28;89333;-77
2024/03/17 15:46:32;;;;;;;;;;;;;;;;;;4976208;28;89072;-77
2024/03/17 15:48:58;;;;;;;;;;;;;;;;;;4974831;28;89713;-76
2024/03/17 15:51:24;;;;;;;;;;;;;;;;;;4977789;28;89143;-77
2024/03/17 15:53:49;;;;;;;;;;;;;;;;;;5009502;28;92300;-77
2024/03/17 15:56:14;;;;;;;;;;;;;;;;;;4975386;28;90299;-77
2024/03/17 15:58:39;;;;;;;;;;;;;;;;;;4977113;28;90269;-78
2024/03/17 16:01:09;;;;;;;;;;;;;;;;;;4976014;28;89745;-78
2024/03/17 16:03:35;;;;;;;;;;;;;;;;;;4999634;28;89357;-77
2024/03/17 16:06:13;;;;;;;;;;;;;;;;;;4975275;28;89800;-76
2024/03/17 16:08:40;;;;;;;;;;;;;;;;;;4974931;28;89158;-78
2024/03/17 16:11:08;;;;;;;;;;;;;;;;;;4977098;28;89130;-77
2024/03/17 16:13:35;;;;;;;;;;;;;;;;;;4976528;28;89652;-77
2024/03/17 16:16:00;;;;;;;;;;;;;;;;;;5009774;28;90502;-78
2024/03/17 16:18:27;;;;;;;;;;;;;;;;;;4975828;28;89740;-77
2024/03/17 16:21:12;;;;;;;;;;;;;;;;;;4977061;28;89635;-77
2024/03/17 16:23:40;;;;;;;;;;;;;;;;;;4970600;28;89526;-74
2024/03/17 16:26:06;;;;;;;;;;;;;;;;;;4977370;28;89491;-78
2024/03/17 16:28:31;;;;;;;;;;;;;;;;;;4973074;28;89478;-73
2024/03/17 16:30:57;;;;;;;;;;;;;;;;;;4977534;28;89035;-75
2024/03/17 16:33:22;;;;;;;;;;;;;;;;;;4967369;28;92296;-74
2024/03/17 16:35:51;;;;;;;;;;;;;;;;;;5012885;28;91038;-77
2024/03/17 16:38:16;;;;;;;;;;;;;;;;;;4979986;28;89747;-77
2024/03/17 16:40:42;;;;;;;;;;;;;;;;;;4978141;28;89454;-77
2024/03/17 16:43:07;;;;;;;;;;;;;;;;;;4978327;28;90185;-77
2024/03/17 16:45:33;;;;;;;;;;;;;;;;;;4976227;28;90536;-78
2024/03/17 16:47:58;;;;;;;;;;;;;;;;;;4978627;28;89716;-77